Time;durP1;ratioP1;P1;durP2;ratioP2;P2;SDS_P1;SDS_P2;PMS_P1;PMS_P2;Temp;Humidity;BMP_temperature;BMP_pressure;BME280_temperature;BME280_humidity;BME280_pressure;Samples;Min_cycle;Max_cycle;Signal;HPM_P1;HPM_P2
2021/12/17 00:04:39;;;;;;;24.27;18.87;;;9.70;88.30;;;;;;4982610;28;21005;-51
2021/12/17 00:07:09;;;;;;;25.07;16.67;;;9.70;88.10;;;;;;4986565;28;20461;-51
2021/12/17 00:09:38;;;;;;;23.20;15.20;;;9.70;88.10;;;;;;4984196;28;20492;-51
2021/12/17 00:12:09;;;;;;;23.00;16.67;;;9.70;88.20;;;;;;4999486;28;20455;-51
2021/12/17 00:14:40;;;;;;;28.40;20.20;;;9.70;88.30;;;;;;4970643;28;20457;-50
2021/12/17 00:17:13;;;;;;;29.17;18.93;;;9.70;88.30;;;;;;4997960;28;20784;-51
2021/12/17 00:19:51;;;;;;;28.20;19.57;;;9.70;88.30;;;;;;4981945;28;20494;-50
2021/12/17 00:52:31;;;;;;;32.97;21.57;;;9.70;88.90;;;;;;5000120;28;20466;-51
2021/12/17 00:54:58;;;;;;;34.17;22.27;;;9.70;88.90;;;;;;4983364;28;20559;-51
2021/12/17 00:57:30;;;;;;;31.43;20.50;;;9.70;88.90;;;;;;4983008;28;20822;-51
2021/12/17 00:59:57;;;;;;;32.63;22.20;;;9.70;88.80;;;;;;4986233;28;20485;-51
2021/12/17 01:02:29;;;;;;;29.70;21.47;;;9.70;88.80;;;;;;4998087;28;20749;-51
2021/12/17 01:04:59;;;;;;;31.03;20.90;;;9.70;88.80;;;;;;4998709;28;20483;-51
2021/12/17 01:07:30;;;;;;;33.07;20.87;;;9.70;88.80;;;;;;5001035;28;20468;-51
2021/12/17 01:09:57;;;;;;;33.80;23.10;;;9.70;88.90;;;;;;5000457;28;20858;-51
2021/12/17 01:12:24;;;;;;;32.00;22.23;;;9.70;88.80;;;;;;4999544;28;20967;-51
2021/12/17 01:14:53;;;;;;;27.50;20.03;;;9.70;88.80;;;;;;4996483;28;20457;-51
2021/12/17 01:17:22;;;;;;;28.77;20.07;;;9.70;88.90;;;;;;4996268;28;20837;-51
2021/12/17 01:25:15;;;;;;;25.87;18.67;;;9.70;88.90;;;;;;4998797;28;20480;-51
2021/12/17 01:35:59;;;;;;;27.30;18.40;;;9.70;88.60;;;;;;5002469;28;21060;-51
2021/12/17 01:43:41;;;;;;;25.07;17.63;;;9.60;88.70;;;;;;5004057;28;20470;-50
2021/12/17 01:46:09;;;;;;;24.23;17.53;;;9.70;88.50;;;;;;5001759;28;20475;-51
2021/12/17 01:48:59;;;;;;;23.03;16.37;;;9.70;88.50;;;;;;5002489;28;20972;-51
2021/12/17 01:59:18;;;;;;;23.30;15.73;;;9.70;88.40;;;;;;4999323;28;20469;-51
2021/12/17 01:59:46;;;;;;;21.60;15.33;;;9.70;88.40;;;;;;5000636;28;20496;-51
2021/12/17 02:02:13;;;;;;;21.37;13.63;;;9.70;88.30;;;;;;5004396;28;20464;-51
2021/12/17 02:04:40;;;;;;;20.63;14.03;;;9.70;88.00;;;;;;5004087;28;20945;-51
2021/12/17 02:07:07;;;;;;;21.60;14.67;;;9.70;87.70;;;;;;5004341;28;20452;-51
2021/12/17 02:31:42;;;;;;;19.00;12.00;;;9.70;87.50;;;;;;5003816;28;20448;-51
2021/12/17 02:34:35;;;;;;;15.27;11.17;;;9.70;87.40;;;;;;4993571;28;20464;-51
2021/12/17 02:37:06;;;;;;;11.87;9.17;;;9.70;87.50;;;;;;5004650;28;21194;-51
2021/12/17 02:48:00;;;;;;;15.67;11.20;;;9.70;87.10;;;;;;5002994;28;20470;-51
2021/12/17 02:50:27;;;;;;;16.77;11.00;;;9.60;87.10;;;;;;5002002;28;20901;-51
2021/12/17 02:52:56;;;;;;;14.53;9.43;;;9.60;87.10;;;;;;5002147;28;20832;-51
2021/12/17 02:55:23;;;;;;;17.53;11.20;;;9.60;87.10;;;;;;5002154;28;20483;-51
2021/12/17 02:57:51;;;;;;;16.67;10.40;;;9.60;87.10;;;;;;5002705;28;20456;-51
2021/12/17 03:00:18;;;;;;;14.97;10.83;;;9.60;87.00;;;;;;5000203;28;20503;-51
2021/12/17 03:02:47;;;;;;;13.10;9.77;;;9.60;86.90;;;;;;5004324;28;20478;-50
2021/12/17 03:05:15;;;;;;;14.23;9.97;;;9.60;86.70;;;;;;5001775;28;20463;-50
2021/12/17 03:07:45;;;;;;;16.40;9.97;;;9.60;86.80;;;;;;5002872;28;20839;-50
2021/12/17 03:10:14;;;;;;;14.63;10.50;;;9.60;86.70;;;;;;5001179;28;20997;-50
2021/12/17 03:12:46;;;;;;;14.23;10.30;;;9.60;86.60;;;;;;4996379;28;20492;-50
2021/12/17 03:26:10;;;;;;;13.70;10.53;;;9.60;86.20;;;;;;5003340;28;21007;-50
2021/12/17 03:28:38;;;;;;;14.43;11.37;;;9.60;86.10;;;;;;5003341;28;20470;-51
2021/12/17 03:31:06;;;;;;;17.00;11.80;;;9.60;86.00;;;;;;4990533;28;20460;-51
2021/12/17 03:33:34;;;;;;;14.90;11.10;;;9.60;86.10;;;;;;5003202;28;20480;-51
2021/12/17 03:36:01;;;;;;;14.30;10.73;;;9.70;85.50;;;;;;5002489;28;20456;-51
2021/12/17 03:38:29;;;;;;;12.97;10.10;;;9.60;85.70;;;;;;4998764;28;20476;-51
2021/12/17 03:41:11;;;;;;;11.57;9.13;;;9.60;85.70;;;;;;4998841;28;20472;-48
2021/12/17 03:43:38;;;;;;;16.80;10.07;;;9.60;85.70;;;;;;4998972;28;20464;-48
2021/12/17 03:46:05;;;;;;;13.83;9.50;;;9.60;85.80;;;;;;4984796;28;20467;-48
2021/12/17 03:48:35;;;;;;;11.80;8.77;;;9.60;85.70;;;;;;5002789;28;20457;-48
2021/12/17 03:51:04;;;;;;;13.17;9.30;;;9.60;85.60;;;;;;5000394;28;20502;-48
2021/12/17 03:53:31;;;;;;;9.80;8.70;;;9.60;85.40;;;;;;4981742;28;20461;-48
2021/12/17 03:55:57;;;;;;;14.73;9.00;;;9.60;85.50;;;;;;5002330;28;21013;-48
2021/12/17 03:58:24;;;;;;;12.90;8.20;;;9.60;85.50;;;;;;4984476;28;20488;-48
2021/12/17 04:00:51;;;;;;;8.30;6.97;;;9.50;85.40;;;;;;4997816;28;20460;-48
2021/12/17 04:03:18;;;;;;;10.60;8.00;;;9.60;84.80;;;;;;5005003;28;20814;-48
2021/12/17 04:05:45;;;;;;;8.33;6.90;;;9.60;84.70;;;;;;4983128;28;20464;-48
2021/12/17 04:08:11;;;;;;;9.53;8.20;;;9.60;84.50;;;;;;4988352;28;20976;-48
2021/12/17 04:10:45;;;;;;;12.30;8.80;;;9.60;84.20;;;;;;4999483;28;20495;-48
2021/12/17 04:13:28;;;;;;;11.70;8.83;;;9.60;84.10;;;;;;4986582;28;20955;-48
2021/12/17 04:16:01;;;;;;;8.97;7.63;;;9.60;83.90;;;;;;5002549;28;20464;-48
2021/12/17 04:18:28;;;;;;;10.73;8.40;;;9.60;83.80;;;;;;4999139;28;20773;-48
2021/12/17 04:20:55;;;;;;;9.30;8.10;;;9.60;83.70;;;;;;5000595;28;20468;-48
2021/12/17 04:23:22;;;;;;;8.97;7.63;;;9.60;83.80;;;;;;5000518;28;20460;-48
2021/12/17 04:25:50;;;;;;;13.17;9.17;;;9.60;83.80;;;;;;5003194;28;20466;-48
2021/12/17 04:28:18;;;;;;;12.63;8.50;;;9.50;83.90;;;;;;5000906;28;20468;-48
2021/12/17 04:30:46;;;;;;;11.73;8.87;;;9.50;83.90;;;;;;5001419;28;20857;-48
2021/12/17 04:33:13;;;;;;;11.93;10.27;;;9.60;83.70;;;;;;4999542;28;20468;-48
2021/12/17 04:35:41;;;;;;;10.37;8.53;;;9.50;83.90;;;;;;4997328;28;20480;-48
2021/12/17 04:38:09;;;;;;;10.90;8.60;;;9.50;83.90;;;;;;4983820;28;20479;-48
2021/12/17 04:40:38;;;;;;;11.03;9.13;;;9.50;84.00;;;;;;4997871;28;20469;-48
2021/12/17 04:46:04;;;;;;;12.53;9.17;;;9.50;84.10;;;;;;5001024;28;20805;-48
2021/12/17 04:59:33;;;;;;;18.90;9.07;;;9.50;83.90;;;;;;4999271;28;20874;-48
2021/12/17 05:02:02;;;;;;;14.83;10.23;;;9.40;84.00;;;;;;4980224;28;21115;-48
2021/12/17 05:04:29;;;;;;;13.33;8.87;;;9.40;84.10;;;;;;4997306;28;20522;-48
2021/12/17 05:06:56;;;;;;;14.43;10.00;;;9.40;84.10;;;;;;4997733;28;20784;-48
2021/12/17 05:09:34;;;;;;;14.60;10.00;;;9.40;84.20;;;;;;4980438;28;20476;-48
2021/12/17 05:22:55;;;;;;;14.20;9.53;;;9.40;84.30;;;;;;4996281;28;20465;-48
2021/12/17 05:25:22;;;;;;;12.80;10.30;;;9.40;84.40;;;;;;5002521;28;20837;-48
2021/12/17 05:27:48;;;;;;;15.60;11.77;;;9.30;84.40;;;;;;4986915;28;20543;-48
2021/12/17 05:30:15;;;;;;;14.57;10.07;;;9.30;84.40;;;;;;5000388;28;20489;-48
2021/12/17 05:32:42;;;;;;;10.57;9.30;;;9.30;84.50;;;;;;5001443;28;20468;-47
2021/12/17 05:35:09;;;;;;;13.33;10.83;;;9.30;84.40;;;;;;5001545;28;20468;-48
2021/12/17 05:37:35;;;;;;;13.13;9.63;;;9.30;84.40;;;;;;5002064;28;20468;-48
2021/12/17 05:40:03;;;;;;;11.83;9.67;;;9.30;84.40;;;;;;5001488;28;20478;-48
2021/12/17 05:42:30;;;;;;;15.30;10.93;;;9.30;84.40;;;;;;5002936;28;20469;-48
2021/12/17 05:45:08;;;;;;;12.00;9.37;;;9.30;84.40;;;;;;5002709;28;20863;-48
2021/12/17 05:47:35;;;;;;;15.43;10.93;;;9.20;84.50;;;;;;4993823;28;20695;-48
2021/12/17 05:50:03;;;;;;;14.63;10.10;;;9.20;84.50;;;;;;5003386;28;20480;-48
2021/12/17 05:52:29;;;;;;;12.17;9.97;;;9.20;84.50;;;;;;4983751;28;20826;-48
2021/12/17 05:54:56;;;;;;;16.77;11.67;;;9.20;84.60;;;;;;5001613;28;20464;-48
2021/12/17 05:57:23;;;;;;;13.83;11.17;;;9.20;84.60;;;;;;5004529;28;20466;-47
2021/12/17 05:59:50;;;;;;;10.03;9.03;;;9.20;84.60;;;;;;5004094;28;20560;-48
2021/12/17 06:02:19;;;;;;;11.07;9.97;;;9.20;84.30;;;;;;5000568;28;20464;-48
2021/12/17 06:04:45;;;;;;;10.07;8.87;;;9.20;84.10;;;;;;5004176;28;21058;-47
2021/12/17 06:07:12;;;;;;;9.50;8.63;;;9.20;83.80;;;;;;4985237;28;20587;-47
2021/12/17 06:09:39;;;;;;;8.90;8.00;;;9.10;83.70;;;;;;4989536;28;20471;-47
2021/12/17 06:12:06;;;;;;;9.27;8.30;;;9.10;83.60;;;;;;5000166;28;20455;-47
2021/12/17 06:14:33;;;;;;;9.10;8.20;;;9.10;83.50;;;;;;5001110;28;20879;-47
2021/12/17 06:17:00;;;;;;;8.07;7.33;;;9.10;83.50;;;;;;5002415;28;20461;-47
2021/12/17 06:19:27;;;;;;;12.47;8.03;;;9.10;83.60;;;;;;4998598;28;20818;-47
2021/12/17 06:21:54;;;;;;;8.60;7.50;;;9.10;83.50;;;;;;5000188;28;20464;-47
2021/12/17 06:24:20;;;;;;;8.50;7.70;;;9.10;83.50;;;;;;5003454;28;20467;-47
2021/12/17 06:26:47;;;;;;;8.77;7.83;;;9.10;83.40;;;;;;5004792;28;20469;-47
2021/12/17 06:29:16;;;;;;;9.60;8.23;;;9.10;83.10;;;;;;5004008;28;20469;-47
2021/12/17 06:31:43;;;;;;;10.80;8.90;;;9.10;83.00;;;;;;5000677;28;20492;-49
2021/12/17 06:34:10;;;;;;;10.13;8.00;;;9.10;82.90;;;;;;4999180;28;20504;-46
2021/12/17 06:36:37;;;;;;;12.03;9.10;;;9.10;82.80;;;;;;4999291;28;20467;-46
2021/12/17 06:39:03;;;;;;;10.17;8.40;;;9.10;82.60;;;;;;4998246;28;20471;-46
2021/12/17 06:41:30;;;;;;;8.53;7.63;;;9.20;82.50;;;;;;5001843;28;20472;-46
2021/12/17 06:43:59;;;;;;;10.43;8.90;;;9.10;82.50;;;;;;5000596;28;20804;-46
2021/12/17 06:46:35;;;;;;;9.37;8.33;;;9.10;82.70;;;;;;5000915;28;20468;-46
2021/12/17 06:54:42;;;;;;;9.00;7.93;;;9.10;82.30;;;;;;5000432;28;20478;-47
2021/12/17 07:10:59;;;;;;;13.03;10.90;;;9.00;82.00;;;;;;5000595;28;20861;-47
2021/12/17 07:21:39;;;;;;;10.37;7.20;;;9.00;80.90;;;;;;5002959;28;20539;-47
2021/12/17 07:39:58;;;;;;;7.33;6.27;;;9.00;80.90;;;;;;4999945;28;20826;-47
2021/12/17 07:42:26;;;;;;;8.23;7.00;;;9.00;80.90;;;;;;4986756;28;20472;-46
2021/12/17 07:44:52;;;;;;;7.27;5.93;;;9.00;80.70;;;;;;5001975;28;20460;-47
2021/12/17 07:47:19;;;;;;;9.70;6.90;;;8.90;80.90;;;;;;4985162;28;20473;-47
2021/12/17 07:49:46;;;;;;;9.50;7.40;;;8.90;81.00;;;;;;4985680;28;20555;-47
2021/12/17 07:52:13;;;;;;;8.70;7.07;;;8.90;81.10;;;;;;4984823;28;20855;-47
2021/12/17 07:54:40;;;;;;;7.67;6.70;;;8.90;81.10;;;;;;4992347;28;20499;-47
2021/12/17 07:57:06;;;;;;;7.03;6.33;;;8.90;81.20;;;;;;4997785;28;20480;-47
2021/12/17 07:59:35;;;;;;;7.67;6.50;;;8.90;81.20;;;;;;4982572;28;20999;-47
2021/12/17 08:02:03;;;;;;;8.40;6.40;;;9.00;81.30;;;;;;4998423;28;20530;-46
2021/12/17 08:04:30;;;;;;;8.50;6.53;;;9.00;80.90;;;;;;4980377;28;20468;-47
2021/12/17 08:06:57;;;;;;;7.00;6.33;;;9.00;80.90;;;;;;4982562;28;20464;-47
2021/12/17 08:09:25;;;;;;;7.13;6.43;;;9.00;81.00;;;;;;5000743;28;20499;-47
2021/12/17 08:11:56;;;;;;;9.40;7.63;;;8.90;81.10;;;;;;4998185;28;20494;-47
2021/12/17 08:14:26;;;;;;;9.27;8.30;;;9.00;81.00;;;;;;4996325;28;20473;-47
2021/12/17 08:17:34;;;;;;;9.03;7.50;;;9.00;81.10;;;;;;4995957;28;20469;-47
2021/12/17 08:25:41;;;;;;;8.60;7.70;;;9.00;81.10;;;;;;4998137;28;20465;-47
2021/12/17 08:28:12;;;;;;;7.97;7.00;;;9.00;80.70;;;;;;4983366;28;20448;-47
2021/12/17 08:30:39;;;;;;;8.63;7.10;;;9.00;80.20;;;;;;4998457;28;20861;-47
2021/12/17 08:33:06;;;;;;;9.30;7.70;;;9.10;80.00;;;;;;4996767;28;20535;-47
2021/12/17 08:35:35;;;;;;;10.33;7.20;;;9.10;80.20;;;;;;4999473;28;20456;-48
2021/12/17 08:38:05;;;;;;;8.47;7.40;;;9.10;80.20;;;;;;4979526;28;20449;-48
2021/12/17 08:40:33;;;;;;;7.33;6.70;;;9.10;79.60;;;;;;4999862;28;20457;-48
2021/12/17 08:43:01;;;;;;;8.30;7.50;;;9.10;79.70;;;;;;5004320;28;20466;-47
2021/12/17 08:45:28;;;;;;;10.87;7.40;;;9.10;79.30;;;;;;5001310;28;20457;-47
2021/12/17 08:47:55;;;;;;;7.40;6.57;;;9.10;79.30;;;;;;4998237;28;20476;-47
2021/12/17 08:50:22;;;;;;;11.00;8.17;;;9.20;79.40;;;;;;5001067;28;20538;-47
2021/12/17 08:52:49;;;;;;;8.37;7.37;;;9.20;79.50;;;;;;4980566;28;20866;-47
2021/12/17 08:55:16;;;;;;;7.67;6.60;;;9.20;79.40;;;;;;4999247;28;20555;-47
2021/12/17 08:57:43;;;;;;;10.83;7.00;;;9.20;79.40;;;;;;4979384;28;20827;-47
2021/12/17 09:00:12;;;;;;;9.43;6.90;;;9.30;79.30;;;;;;4996569;28;20459;-47
2021/12/17 09:02:41;;;;;;;7.60;6.80;;;9.30;79.40;;;;;;4996013;28;20468;-47
2021/12/17 09:05:09;;;;;;;7.20;6.50;;;9.30;79.50;;;;;;4983781;28;20521;-47
2021/12/17 09:07:36;;;;;;;8.33;6.90;;;9.30;79.50;;;;;;4984627;28;20954;-47
2021/12/17 09:10:06;;;;;;;8.47;6.57;;;9.30;79.00;;;;;;4996599;28;21091;-47
2021/12/17 09:12:33;;;;;;;9.70;8.23;;;9.30;79.10;;;;;;4999409;28;20489;-47
2021/12/17 09:14:59;;;;;;;8.63;6.90;;;9.30;79.10;;;;;;4992018;28;20958;-47
2021/12/17 09:17:26;;;;;;;10.20;8.00;;;9.30;79.00;;;;;;4997393;28;20578;-47
2021/12/17 09:19:53;;;;;;;9.40;7.07;;;9.40;78.40;;;;;;4997217;28;20461;-47
2021/12/17 09:22:21;;;;;;;7.43;6.73;;;9.40;77.80;;;;;;4998922;28;20464;-47
2021/12/17 09:24:48;;;;;;;7.80;7.00;;;9.40;78.00;;;;;;5000550;28;20989;-47
2021/12/17 09:27:14;;;;;;;8.80;7.90;;;9.40;77.80;;;;;;4972750;28;20472;-47
2021/12/17 09:29:41;;;;;;;7.30;6.50;;;9.40;77.90;;;;;;4997525;28;20492;-47
2021/12/17 09:32:08;;;;;;;8.00;7.20;;;9.40;78.00;;;;;;5000666;28;20527;-47
2021/12/17 09:34:36;;;;;;;8.23;7.43;;;9.40;77.80;;;;;;5001638;28;20569;-47
2021/12/17 09:37:04;;;;;;;9.13;7.30;;;9.40;77.80;;;;;;4999313;28;20547;-47
2021/12/17 09:39:31;;;;;;;10.20;8.63;;;9.50;77.60;;;;;;4998102;28;20845;-47
2021/12/17 09:41:58;;;;;;;7.80;7.10;;;9.40;77.80;;;;;;4997134;28;20456;-47
2021/12/17 09:44:25;;;;;;;7.70;6.77;;;9.40;77.80;;;;;;4998971;28;20558;-47
2021/12/17 09:46:57;;;;;;;7.13;6.40;;;9.40;77.50;;;;;;4996093;28;20830;-47
2021/12/17 09:49:24;;;;;;;8.67;6.57;;;9.50;77.30;;;;;;4997108;28;20984;-47
2021/12/17 09:51:51;;;;;;;8.00;7.20;;;9.60;76.70;;;;;;4999099;28;20580;-47
2021/12/17 09:54:18;;;;;;;6.77;6.17;;;9.60;76.20;;;;;;4998414;28;20543;-47
2021/12/17 09:56:46;;;;;;;7.70;7.00;;;9.60;76.30;;;;;;4998910;28;20457;-47
2021/12/17 09:59:14;;;;;;;8.47;6.30;;;9.60;76.30;;;;;;4997268;28;20596;-47
2021/12/17 10:01:43;;;;;;;6.47;5.87;;;9.60;76.30;;;;;;4984420;28;20567;-47
2021/12/17 10:04:14;;;;;;;6.53;5.90;;;9.60;75.50;;;;;;5004889;28;20972;-47
2021/12/17 10:06:41;;;;;;;7.57;6.40;;;9.60;76.00;;;;;;5002029;28;20464;-47
2021/12/17 10:09:08;;;;;;;7.43;5.30;;;9.70;74.90;;;;;;5001484;28;20508;-47
2021/12/17 10:11:35;;;;;;;6.00;5.50;;;9.70;74.90;;;;;;5000377;28;20487;-47
2021/12/17 10:14:19;;;;;;;5.77;5.27;;;9.70;74.60;;;;;;4987591;28;21527;-47
2021/12/17 10:16:46;;;;;;;6.50;5.30;;;9.60;75.10;;;;;;4971558;28;20792;-47
2021/12/17 10:19:41;;;;;;;6.60;5.90;;;9.70;75.20;;;;;;5004345;28;20953;-46
2021/12/17 10:22:11;;;;;;;6.37;5.33;;;9.70;75.10;;;;;;4984327;28;20495;-47
2021/12/17 10:24:42;;;;;;;5.20;4.70;;;9.70;74.80;;;;;;5002508;28;20468;-47
2021/12/17 10:27:25;;;;;;;7.50;6.20;;;9.70;74.50;;;;;;4998313;28;20464;-47
2021/12/17 10:29:52;;;;;;;7.00;6.20;;;9.70;74.50;;;;;;4988357;28;20470;-47
2021/12/17 10:32:22;;;;;;;6.03;5.30;;;9.70;74.50;;;;;;4995858;28;20628;-47
2021/12/17 10:35:25;;;;;;;6.30;5.23;;;9.70;74.80;;;;;;4998733;28;21060;-47
2021/12/17 10:38:02;;;;;;;6.13;5.47;;;9.70;74.70;;;;;;4999924;28;20463;-47
2021/12/17 10:40:34;;;;;;;5.70;5.20;;;9.70;75.10;;;;;;4988209;28;20543;-47
2021/12/17 10:43:09;;;;;;;6.47;4.77;;;9.70;75.10;;;;;;5001635;28;20452;-47
2021/12/17 10:45:45;;;;;;;6.17;5.43;;;9.70;75.40;;;;;;4968353;28;20464;-47
2021/12/17 10:48:32;;;;;;;6.77;6.00;;;9.70;75.30;;;;;;4985863;28;20460;-47
2021/12/17 10:51:13;;;;;;;9.17;6.80;;;9.70;75.30;;;;;;5003268;28;20494;-47
2021/12/17 10:53:53;;;;;;;8.60;5.13;;;9.70;75.20;;;;;;5001972;28;20461;-47
2021/12/17 10:56:26;;;;;;;6.70;5.23;;;9.70;75.20;;;;;;4982170;28;20838;-47
2021/12/17 10:59:04;;;;;;;5.67;5.13;;;9.80;75.10;;;;;;4976525;28;20587;-47
2021/12/17 11:01:35;;;;;;;6.10;5.40;;;9.90;74.90;;;;;;5000260;28;20486;-47
2021/12/17 11:04:11;;;;;;;12.40;6.23;;;10.00;74.80;;;;;;5001998;28;21033;-47
2021/12/17 11:06:55;;;;;;;7.07;6.37;;;10.00;74.90;;;;;;5000987;28;20464;-47
2021/12/17 11:09:34;;;;;;;9.73;5.97;;;10.00;75.10;;;;;;4990298;28;20461;-47
2021/12/17 11:12:33;;;;;;;10.47;7.00;;;10.00;75.00;;;;;;5001237;28;21519;-47
2021/12/17 11:15:12;;;;;;;8.00;6.20;;;10.00;74.90;;;;;;4979166;28;20464;-47
2021/12/17 11:17:41;;;;;;;9.13;6.93;;;10.10;74.70;;;;;;4998039;28;20467;-47
2021/12/17 11:20:11;;;;;;;7.13;6.43;;;10.10;74.00;;;;;;5002069;28;20457;-47
2021/12/17 11:22:41;;;;;;;8.93;6.60;;;10.10;73.60;;;;;;4983630;28;20852;-47
2021/12/17 11:25:09;;;;;;;7.80;6.03;;;10.10;73.20;;;;;;4999378;28;20551;-46
2021/12/17 11:27:36;;;;;;;7.63;6.07;;;10.10;73.50;;;;;;4977338;28;20915;-47
2021/12/17 11:30:09;;;;;;;6.30;5.40;;;10.20;73.20;;;;;;4998145;28;20551;-47
2021/12/17 11:32:36;;;;;;;7.17;5.60;;;10.20;73.30;;;;;;4999453;28;20494;-47
2021/12/17 11:35:04;;;;;;;7.40;5.37;;;10.30;74.00;;;;;;4997637;28;20515;-47
2021/12/17 11:37:32;;;;;;;7.60;5.67;;;10.40;73.70;;;;;;5002720;28;20476;-47
2021/12/17 11:40:07;;;;;;;6.23;5.23;;;10.40;73.20;;;;;;4999246;28;20465;-48
2021/12/17 11:42:54;;;;;;;6.53;5.60;;;10.40;72.70;;;;;;4999054;28;20545;-47
2021/12/17 11:45:28;;;;;;;10.90;5.70;;;10.40;73.00;;;;;;5001700;28;20829;-47
2021/12/17 11:48:11;;;;;;;8.37;5.33;;;10.40;73.30;;;;;;5002461;28;20471;-47
2021/12/17 11:50:41;;;;;;;5.57;5.07;;;10.40;73.20;;;;;;5003734;28;20452;-47
2021/12/17 11:53:24;;;;;;;5.23;4.73;;;10.40;73.30;;;;;;5002794;28;20820;-47
2021/12/17 11:56:00;;;;;;;6.80;5.10;;;10.40;73.60;;;;;;5003140;28;20470;-47
2021/12/17 11:58:53;;;;;;;5.77;4.63;;;10.40;73.30;;;;;;4995758;28;20480;-47
2021/12/17 12:01:57;;;;;;;5.60;5.07;;;10.30;73.10;;;;;;4997855;28;20468;-47
2021/12/17 12:04:33;;;;;;;6.03;4.93;;;10.40;73.10;;;;;;4982750;28;20916;-47
2021/12/17 12:07:01;;;;;;;7.27;5.27;;;10.40;73.60;;;;;;4999804;28;20816;-48
2021/12/17 12:10:01;;;;;;;6.73;5.07;;;10.40;73.10;;;;;;5001389;28;20472;-47
2021/12/17 12:12:41;;;;;;;6.07;5.47;;;10.40;73.00;;;;;;4997948;28;21025;-47
2021/12/17 12:15:21;;;;;;;6.63;5.90;;;10.30;72.80;;;;;;4995433;28;20475;-47
2021/12/17 12:18:11;;;;;;;6.10;4.90;;;10.40;73.60;;;;;;4996494;28;20488;-47
2021/12/17 12:20:47;;;;;;;5.80;4.73;;;10.40;73.70;;;;;;4998446;28;20543;-47
2021/12/17 12:23:32;;;;;;;6.27;5.67;;;10.40;73.40;;;;;;5000283;28;20475;-47
2021/12/17 12:26:05;;;;;;;5.10;4.60;;;10.40;73.40;;;;;;4986004;28;20471;-47
2021/12/17 12:28:55;;;;;;;5.70;4.83;;;10.50;73.30;;;;;;4995438;28;20500;-47
2021/12/17 12:31:33;;;;;;;4.83;4.40;;;10.50;73.40;;;;;;4986001;28;20496;-47
2021/12/17 12:34:00;;;;;;;8.63;6.10;;;10.50;72.70;;;;;;4999671;28;20540;-48
2021/12/17 12:36:52;;;;;;;6.87;5.13;;;10.50;72.40;;;;;;4999760;28;21012;-47
2021/12/17 12:39:31;;;;;;;6.80;4.90;;;10.50;72.50;;;;;;5002294;28;20461;-47
2021/12/17 12:41:59;;;;;;;6.70;4.83;;;10.40;72.70;;;;;;4999657;28;20974;-47
2021/12/17 12:44:41;;;;;;;5.10;4.53;;;10.30;73.10;;;;;;5001909;28;20988;-47
2021/12/17 12:47:12;;;;;;;7.13;5.33;;;10.30;73.30;;;;;;5003262;28;20491;-48
2021/12/17 12:49:45;;;;;;;5.47;4.50;;;10.30;73.60;;;;;;4999065;28;20464;-47
2021/12/17 12:52:33;;;;;;;6.13;5.07;;;10.30;73.40;;;;;;5000003;28;20492;-47
2021/12/17 12:55:05;;;;;;;6.30;4.80;;;10.40;72.90;;;;;;5001348;28;20459;-47
2021/12/17 12:57:54;;;;;;;7.90;5.57;;;10.40;72.30;;;;;;4987582;28;20461;-48
2021/12/17 13:00:34;;;;;;;5.93;5.33;;;10.40;72.70;;;;;;5000211;28;20464;-48
2021/12/17 13:03:08;;;;;;;5.77;4.90;;;10.40;73.10;;;;;;4982355;28;20465;-48
2021/12/17 13:05:36;;;;;;;5.90;4.80;;;10.40;73.00;;;;;;4984564;28;20468;-48
2021/12/17 13:08:07;;;;;;;5.63;4.50;;;10.40;72.70;;;;;;4985013;28;20559;-48
2021/12/17 13:10:38;;;;;;;9.73;4.70;;;10.40;72.70;;;;;;4997473;28;20456;-48
2021/12/17 13:16:34;;;;;;;3.13;2.80;;;10.30;72.90;;;;;;4976047;28;21218;-48
2021/12/17 13:24:21;;;;;;;7.37;3.50;;;10.30;73.30;;;;;;5000926;28;20461;-48
2021/12/17 13:27:11;;;;;;;4.67;3.47;;;10.30;73.80;;;;;;4997003;28;20457;-48
2021/12/17 13:29:41;;;;;;;4.10;3.70;;;10.30;73.80;;;;;;5000640;28;20793;-48
2021/12/17 13:32:12;;;;;;;5.23;3.60;;;10.30;73.70;;;;;;4998394;28;20484;-48
2021/12/17 13:34:46;;;;;;;7.80;3.70;;;10.30;73.70;;;;;;5002250;28;20456;-47
2021/12/17 13:37:20;;;;;;;3.03;2.53;;;10.30;73.90;;;;;;5003952;28;20455;-48
2021/12/17 13:40:14;;;;;;;5.80;3.30;;;10.30;74.00;;;;;;5003971;28;20827;-48
2021/12/17 13:42:46;;;;;;;4.90;2.63;;;10.30;74.20;;;;;;4985558;28;20452;-48
2021/12/17 13:45:15;;;;;;;3.93;2.83;;;10.20;74.50;;;;;;5004485;28;20551;-48
2021/12/17 13:47:54;;;;;;;2.87;2.53;;;10.20;74.90;;;;;;5004272;28;21144;-48
2021/12/17 13:50:28;;;;;;;3.13;2.73;;;10.20;75.20;;;;;;4983740;28;20455;-48
2021/12/17 13:53:11;;;;;;;2.70;2.50;;;10.20;75.10;;;;;;5002268;28;20491;-48
2021/12/17 13:55:57;;;;;;;3.10;2.80;;;10.20;75.30;;;;;;4996458;28;20464;-48
2021/12/17 13:58:25;;;;;;;4.83;2.40;;;10.20;75.40;;;;;;5003736;28;20480;-48
2021/12/17 14:00:55;;;;;;;3.43;2.60;;;10.10;75.60;;;;;;5001494;28;20844;-47
2021/12/17 14:03:30;;;;;;;3.87;3.30;;;10.10;75.50;;;;;;4990193;28;20464;-47
2021/12/17 14:06:08;;;;;;;4.30;2.63;;;10.10;75.60;;;;;;4983945;28;20486;-47
2021/12/17 14:08:40;;;;;;;2.60;2.40;;;10.10;75.50;;;;;;4983885;28;20480;-47
2021/12/17 14:11:32;;;;;;;6.57;2.60;;;10.10;75.50;;;;;;4972014;28;20464;-47
2021/12/17 14:14:27;;;;;;;2.80;2.50;;;10.10;75.20;;;;;;4984623;28;20464;-47
2021/12/17 14:16:59;;;;;;;4.90;2.40;;;10.10;75.50;;;;;;5001422;28;20502;-46
2021/12/17 14:19:46;;;;;;;4.27;2.50;;;10.00;75.90;;;;;;5000057;28;20465;-47
2021/12/17 14:22:28;;;;;;;3.00;1.60;;;10.00;76.20;;;;;;5000474;28;20479;-47
2021/12/17 14:24:59;;;;;;;1.83;1.73;;;10.00;76.30;;;;;;5001516;28;20507;-48
2021/12/17 14:27:43;;;;;;;9.93;2.80;;;9.90;76.50;;;;;;4999500;28;20548;-47
2021/12/17 14:30:11;;;;;;;2.97;2.27;;;9.90;76.80;;;;;;5005573;28;20483;-47
2021/12/17 14:32:46;;;;;;;2.80;1.97;;;9.90;76.90;;;;;;5001295;28;20899;-47
2021/12/17 14:35:14;;;;;;;1.67;1.57;;;9.90;76.90;;;;;;4980491;28;20456;-47
2021/12/17 14:37:54;;;;;;;6.17;2.70;;;9.90;76.90;;;;;;5000629;28;20548;-47
2021/12/17 14:40:34;;;;;;;2.20;1.83;;;9.90;76.80;;;;;;4995501;28;20555;-47
2021/12/17 14:43:01;;;;;;;2.70;1.93;;;9.80;77.00;;;;;;5004192;28;20468;-47
2021/12/17 14:45:35;;;;;;;2.87;2.37;;;9.90;76.90;;;;;;4999370;28;20962;-47
2021/12/17 14:48:26;;;;;;;2.43;2.13;;;9.90;76.90;;;;;;4997478;28;20456;-47
2021/12/17 15:04:47;;;;;;;2.20;1.63;;;9.80;77.70;;;;;;4999830;28;21163;-47
2021/12/17 15:07:14;;;;;;;1.60;1.50;;;9.80;77.90;;;;;;4989710;28;20463;-47
2021/12/17 15:09:44;;;;;;;3.03;2.60;;;9.70;78.00;;;;;;4997972;28;20483;-47
2021/12/17 15:15:11;;;;;;;2.20;2.00;;;9.80;78.10;;;;;;5001106;28;20451;-47
2021/12/17 15:17:39;;;;;;;3.10;2.80;;;9.80;78.00;;;;;;4984839;28;20463;-47
2021/12/17 15:20:20;;;;;;;2.73;2.50;;;9.80;77.90;;;;;;5002367;28;20459;-47
2021/12/17 15:22:47;;;;;;;2.40;2.13;;;9.80;78.00;;;;;;4989862;28;20467;-47
2021/12/17 15:25:15;;;;;;;2.97;2.43;;;9.80;78.00;;;;;;4999024;28;20473;-47
2021/12/17 15:27:43;;;;;;;3.47;2.50;;;9.80;77.70;;;;;;5001521;28;20887;-47
2021/12/17 15:30:20;;;;;;;2.00;1.90;;;9.70;78.00;;;;;;4996711;28;20452;-47
2021/12/17 15:32:47;;;;;;;2.87;2.30;;;9.70;78.00;;;;;;4999238;28;21077;-47
2021/12/17 15:35:22;;;;;;;3.27;2.27;;;9.70;78.00;;;;;;5002466;28;20449;-47
2021/12/17 15:37:51;;;;;;;2.80;2.13;;;9.70;78.10;;;;;;4999348;28;20579;-47
2021/12/17 15:40:18;;;;;;;3.00;2.37;;;9.70;78.10;;;;;;5000800;28;20882;-47
2021/12/17 15:42:45;;;;;;;2.70;2.10;;;9.70;78.10;;;;;;4985082;28;20483;-47
2021/12/17 15:45:12;;;;;;;3.13;2.73;;;9.80;78.20;;;;;;4988208;28;20452;-47
2021/12/17 15:47:39;;;;;;;2.37;2.17;;;9.70;78.40;;;;;;5001313;28;20457;-47
2021/12/17 15:50:10;;;;;;;2.70;1.80;;;9.80;78.40;;;;;;4982005;28;20448;-47
2021/12/17 15:52:47;;;;;;;3.53;2.00;;;9.70;78.80;;;;;;4986758;28;20572;-47
2021/12/17 15:55:20;;;;;;;2.07;1.87;;;9.80;79.10;;;;;;4992800;28;20464;-47
2021/12/17 15:57:47;;;;;;;2.37;2.17;;;9.70;79.20;;;;;;4999712;28;20448;-48
2021/12/17 16:00:16;;;;;;;2.50;1.73;;;9.70;79.40;;;;;;4998961;28;20478;-47
2021/12/17 16:02:44;;;;;;;2.27;2.07;;;9.70;79.50;;;;;;5001899;28;20969;-47
2021/12/17 16:05:15;;;;;;;3.77;2.10;;;9.70;79.60;;;;;;4999775;28;20543;-47
2021/12/17 16:07:45;;;;;;;4.17;2.70;;;9.70;79.60;;;;;;5002122;28;20464;-47
2021/12/17 16:18:28;;;;;;;2.60;2.13;;;9.70;79.50;;;;;;5000058;28;20468;-47
2021/12/17 16:21:03;;;;;;;2.30;2.20;;;9.70;79.50;;;;;;4999506;28;20479;-47
2021/12/17 16:23:33;;;;;;;2.27;2.07;;;9.70;79.60;;;;;;4999592;28;20464;-47
2021/12/17 16:26:00;;;;;;;2.87;2.30;;;9.70;79.70;;;;;;4998987;28;20440;-47
2021/12/17 16:28:28;;;;;;;2.30;2.03;;;9.70;79.80;;;;;;4978504;28;21022;-47
2021/12/17 16:31:05;;;;;;;2.83;2.10;;;9.70;79.60;;;;;;4988897;28;20567;-47
2021/12/17 16:33:33;;;;;;;3.93;2.60;;;9.70;79.60;;;;;;4999561;28;20495;-47
2021/12/17 16:36:02;;;;;;;2.80;2.60;;;9.70;79.50;;;;;;4984231;28;20818;-47
2021/12/17 16:38:31;;;;;;;3.10;2.80;;;9.60;79.70;;;;;;4986124;28;20877;-47
2021/12/17 16:40:59;;;;;;;2.70;2.50;;;9.70;79.80;;;;;;4985245;28;20544;-47